Terminal Aerodrome Forecast
Issued by NWS Blacksburg, VA

Home | Current Version | Previous Version | Text Only | Print | Product List | Glossary On
Versions: 1 2 3 4 5 6 7 8 9 10 11 12 13 14 15 16 17 18 19 20 21 22 23 24 25 26 27
000
FTUS41 KRNK 221741
TAFROA
TAF
KROA 221741Z 2218/2318 28004KT P6SM -SHRA SCT040 OVC100
      TEMPO 2222/2224 4SM TSRA OVC030CB
     FM230100 29005KT P6SM SCT060 OVC250
     FM231000 29004KT 6SM BR SCT008 OVC010
     FM231500 01004KT P6SM BKN025
     FM231700 02005KT P6SM -SHRA SCT025 BKN035=

USA.gov is the U.S. government's official web portal to all federal, state and local government web resources and services.